sensor_id;sensor_type;location;lat;lon;timestamp;temperature;humidity
52963;DHT22;38827;53.024;6.596;2023-05-15T00:00:00;12.40;77.60
52963;DHT22;38827;53.024;6.596;2023-05-15T00:02:26;12.40;77.80
52963;DHT22;38827;53.024;6.596;2023-05-15T00:04:52;12.40;77.90
52963;DHT22;38827;53.024;6.596;2023-05-15T00:07:18;12.30;77.90
52963;DHT22;38827;53.024;6.596;2023-05-15T00:09:43;12.20;78.00
52963;DHT22;38827;53.024;6.596;2023-05-15T00:12:09;12.20;78.20
52963;DHT22;38827;53.024;6.596;2023-05-15T00:14:35;12.20;78.20
52963;DHT22;38827;53.024;6.596;2023-05-15T00:17:00;12.10;78.40
52963;DHT22;38827;53.024;6.596;2023-05-15T00:19:26;12.10;78.60
52963;DHT22;38827;53.024;6.596;2023-05-15T00:21:52;12.10;78.60
52963;DHT22;38827;53.024;6.596;2023-05-15T00:24:20;12.10;78.70
52963;DHT22;38827;53.024;6.596;2023-05-15T00:26:46;12.10;78.70
52963;DHT22;38827;53.024;6.596;2023-05-15T00:29:12;12.00;78.60
52963;DHT22;38827;53.024;6.596;2023-05-15T00:31:37;11.90;78.70
52963;DHT22;38827;53.024;6.596;2023-05-15T00:34:03;11.80;78.80
52963;DHT22;38827;53.024;6.596;2023-05-15T00:36:29;11.80;79.30
52963;DHT22;38827;53.024;6.596;2023-05-15T00:38:55;11.80;79.50
52963;DHT22;38827;53.024;6.596;2023-05-15T00:41:21;11.80;79.70
52963;DHT22;38827;53.024;6.596;2023-05-15T00:43:49;11.80;79.80
52963;DHT22;38827;53.024;6.596;2023-05-15T00:46:16;11.80;80.00
52963;DHT22;38827;53.024;6.596;2023-05-15T00:48:44;11.80;80.00
52963;DHT22;38827;53.024;6.596;2023-05-15T00:51:11;11.80;80.00
52963;DHT22;38827;53.024;6.596;2023-05-15T00:53:36;11.90;80.20
52963;DHT22;38827;53.024;6.596;2023-05-15T00:56:03;11.90;80.10
52963;DHT22;38827;53.024;6.596;2023-05-15T00:58:30;11.80;80.10
52963;DHT22;38827;53.024;6.596;2023-05-15T01:00:56;11.80;80.20
52963;DHT22;38827;53.024;6.596;2023-05-15T01:03:22;11.80;80.20
52963;DHT22;38827;53.024;6.596;2023-05-15T01:05:48;11.80;80.20
52963;DHT22;38827;53.024;6.596;2023-05-15T01:10:58;11.70;80.60
52963;DHT22;38827;53.024;6.596;2023-05-15T01:13:24;11.70;80.60
52963;DHT22;38827;53.024;6.596;2023-05-15T01:15:50;11.70;80.70
52963;DHT22;38827;53.024;6.596;2023-05-15T01:18:16;11.60;80.80
52963;DHT22;38827;53.024;6.596;2023-05-15T01:26:34;11.60;81.10
52963;DHT22;38827;53.024;6.596;2023-05-15T01:29:25;11.60;81.30
52963;DHT22;38827;53.024;6.596;2023-05-15T01:32:06;11.60;81.00
52963;DHT22;38827;53.024;6.596;2023-05-15T01:37:13;11.70;81.10
52963;DHT22;38827;53.024;6.596;2023-05-15T01:39:44;11.70;81.00
52963;DHT22;38827;53.024;6.596;2023-05-15T01:42:15;11.70;81.10
52963;DHT22;38827;53.024;6.596;2023-05-15T01:44:53;11.70;81.20
52963;DHT22;38827;53.024;6.596;2023-05-15T01:47:25;11.70;81.20
52963;DHT22;38827;53.024;6.596;2023-05-15T01:49:52;11.70;81.20
52963;DHT22;38827;53.024;6.596;2023-05-15T01:52:25;11.80;81.00
52963;DHT22;38827;53.024;6.596;2023-05-15T01:54:54;11.80;80.80
52963;DHT22;38827;53.024;6.596;2023-05-15T01:57:21;11.70;80.60
52963;DHT22;38827;53.024;6.596;2023-05-15T01:59:49;11.70;80.70
52963;DHT22;38827;53.024;6.596;2023-05-15T02:02:16;11.70;80.80
52963;DHT22;38827;53.024;6.596;2023-05-15T02:04:43;11.80;80.90
52963;DHT22;38827;53.024;6.596;2023-05-15T02:07:09;11.80;80.40
52963;DHT22;38827;53.024;6.596;2023-05-15T02:09:35;11.80;80.60
52963;DHT22;38827;53.024;6.596;2023-05-15T02:12:02;11.80;80.20
52963;DHT22;38827;53.024;6.596;2023-05-15T02:14:28;11.80;80.00
52963;DHT22;38827;53.024;6.596;2023-05-15T02:16:55;11.80;79.90
52963;DHT22;38827;53.024;6.596;2023-05-15T02:19:20;11.70;79.60
52963;DHT22;38827;53.024;6.596;2023-05-15T02:21:47;11.70;79.70
52963;DHT22;38827;53.024;6.596;2023-05-15T02:24:12;11.70;79.80
52963;DHT22;38827;53.024;6.596;2023-05-15T02:29:19;11.60;79.80
52963;DHT22;38827;53.024;6.596;2023-05-15T02:35:04;11.60;79.80
52963;DHT22;38827;53.024;6.596;2023-05-15T02:37:37;11.60;79.90
52963;DHT22;38827;53.024;6.596;2023-05-15T02:40:07;11.50;80.10
52963;DHT22;38827;53.024;6.596;2023-05-15T02:42:35;11.50;80.10
52963;DHT22;38827;53.024;6.596;2023-05-15T02:45:02;11.50;80.30
52963;DHT22;38827;53.024;6.596;2023-05-15T02:47:28;11.50;80.40
52963;DHT22;38827;53.024;6.596;2023-05-15T02:49:55;11.40;80.70
52963;DHT22;38827;53.024;6.596;2023-05-15T02:52:22;11.50;80.70
52963;DHT22;38827;53.024;6.596;2023-05-15T02:54:49;11.50;80.80
52963;DHT22;38827;53.024;6.596;2023-05-15T02:57:14;11.50;80.80
52963;DHT22;38827;53.024;6.596;2023-05-15T02:59:40;11.60;80.70
52963;DHT22;38827;53.024;6.596;2023-05-15T03:02:06;11.60;80.80
52963;DHT22;38827;53.024;6.596;2023-05-15T03:04:31;11.60;80.80
52963;DHT22;38827;53.024;6.596;2023-05-15T03:06:57;11.70;80.70
52963;DHT22;38827;53.024;6.596;2023-05-15T03:09:23;11.70;80.40
52963;DHT22;38827;53.024;6.596;2023-05-15T03:11:50;11.70;80.20
52963;DHT22;38827;53.024;6.596;2023-05-15T03:14:16;11.70;79.90
52963;DHT22;38827;53.024;6.596;2023-05-15T03:17:12;11.70;79.80
52963;DHT22;38827;53.024;6.596;2023-05-15T03:19:38;11.70;79.60
52963;DHT22;38827;53.024;6.596;2023-05-15T03:22:09;11.60;80.00
52963;DHT22;38827;53.024;6.596;2023-05-15T03:24:35;11.60;80.10
52963;DHT22;38827;53.024;6.596;2023-05-15T03:27:01;11.60;80.00
52963;DHT22;38827;53.024;6.596;2023-05-15T03:29:26;11.50;80.10
52963;DHT22;38827;53.024;6.596;2023-05-15T03:31:52;11.40;80.10
52963;DHT22;38827;53.024;6.596;2023-05-15T03:34:17;11.40;80.30
52963;DHT22;38827;53.024;6.596;2023-05-15T03:36:43;11.40;80.40
52963;DHT22;38827;53.024;6.596;2023-05-15T03:39:09;11.30;80.60
52963;DHT22;38827;53.024;6.596;2023-05-15T03:41:34;11.30;80.50
52963;DHT22;38827;53.024;6.596;2023-05-15T03:44:00;11.30;80.40
52963;DHT22;38827;53.024;6.596;2023-05-15T03:46:25;11.20;80.20
52963;DHT22;38827;53.024;6.596;2023-05-15T03:48:51;11.10;80.30
52963;DHT22;38827;53.024;6.596;2023-05-15T03:51:19;11.10;80.50
52963;DHT22;38827;53.024;6.596;2023-05-15T03:53:44;11.10;80.60
52963;DHT22;38827;53.024;6.596;2023-05-15T03:56:10;11.00;80.60
52963;DHT22;38827;53.024;6.596;2023-05-15T03:58:36;11.00;80.60
52963;DHT22;38827;53.024;6.596;2023-05-15T04:01:01;10.90;80.60
52963;DHT22;38827;53.024;6.596;2023-05-15T04:03:27;10.90;80.40
52963;DHT22;38827;53.024;6.596;2023-05-15T04:05:53;10.80;80.20
52963;DHT22;38827;53.024;6.596;2023-05-15T04:08:18;10.80;80.10
52963;DHT22;38827;53.024;6.596;2023-05-15T04:10:45;10.70;80.00
52963;DHT22;38827;53.024;6.596;2023-05-15T04:13:11;10.60;80.20
52963;DHT22;38827;53.024;6.596;2023-05-15T04:15:37;10.60;80.20
52963;DHT22;38827;53.024;6.596;2023-05-15T04:18:02;10.60;80.40
52963;DHT22;38827;53.024;6.596;2023-05-15T04:20:28;10.50;80.30
52963;DHT22;38827;53.024;6.596;2023-05-15T04:22:54;10.50;80.40
52963;DHT22;38827;53.024;6.596;2023-05-15T04:25:19;10.50;80.50
52963;DHT22;38827;53.024;6.596;2023-05-15T04:27:45;10.50;80.70
52963;DHT22;38827;53.024;6.596;2023-05-15T04:30:11;10.50;80.90
52963;DHT22;38827;53.024;6.596;2023-05-15T04:32:38;10.60;81.00
52963;DHT22;38827;53.024;6.596;2023-05-15T04:35:05;10.60;81.00
52963;DHT22;38827;53.024;6.596;2023-05-15T04:37:37;10.70;81.00
52963;DHT22;38827;53.024;6.596;2023-05-15T04:40:04;10.80;81.00
52963;DHT22;38827;53.024;6.596;2023-05-15T04:42:31;10.80;80.60
52963;DHT22;38827;53.024;6.596;2023-05-15T04:44:58;10.90;80.40
52963;DHT22;38827;53.024;6.596;2023-05-15T04:47:24;10.90;80.30
52963;DHT22;38827;53.024;6.596;2023-05-15T04:49:50;10.90;80.00
52963;DHT22;38827;53.024;6.596;2023-05-15T04:52:16;11.00;79.70
52963;DHT22;38827;53.024;6.596;2023-05-15T04:54:41;11.00;79.50
52963;DHT22;38827;53.024;6.596;2023-05-15T04:57:09;11.00;79.50
52963;DHT22;38827;53.024;6.596;2023-05-15T04:59:34;11.00;79.20
52963;DHT22;38827;53.024;6.596;2023-05-15T05:02:01;11.00;78.50
52963;DHT22;38827;53.024;6.596;2023-05-15T05:04:27;11.00;78.80
52963;DHT22;38827;53.024;6.596;2023-05-15T05:06:53;11.00;78.60
52963;DHT22;38827;53.024;6.596;2023-05-15T05:09:19;11.00;78.80
52963;DHT22;38827;53.024;6.596;2023-05-15T05:11:45;11.00;78.80
52963;DHT22;38827;53.024;6.596;2023-05-15T05:14:12;11.10;78.70
52963;DHT22;38827;53.024;6.596;2023-05-15T05:16:38;11.10;78.70
52963;DHT22;38827;53.024;6.596;2023-05-15T05:19:04;11.20;78.40
52963;DHT22;38827;53.024;6.596;2023-05-15T05:21:31;11.30;78.30
52963;DHT22;38827;53.024;6.596;2023-05-15T05:23:57;11.40;78.20
52963;DHT22;38827;53.024;6.596;2023-05-15T05:26:23;11.50;77.80
52963;DHT22;38827;53.024;6.596;2023-05-15T05:28:48;11.50;77.60
52963;DHT22;38827;53.024;6.596;2023-05-15T05:31:14;11.60;77.40
52963;DHT22;38827;53.024;6.596;2023-05-15T05:33:40;11.60;77.30
52963;DHT22;38827;53.024;6.596;2023-05-15T05:36:06;11.60;77.20
52963;DHT22;38827;53.024;6.596;2023-05-15T05:38:33;11.70;77.20
52963;DHT22;38827;53.024;6.596;2023-05-15T05:40:58;11.70;77.20
52963;DHT22;38827;53.024;6.596;2023-05-15T05:43:26;11.80;77.00
52963;DHT22;38827;53.024;6.596;2023-05-15T05:45:51;11.90;76.70
52963;DHT22;38827;53.024;6.596;2023-05-15T05:48:17;12.00;76.70
52963;DHT22;38827;53.024;6.596;2023-05-15T05:53:23;12.20;76.10
52963;DHT22;38827;53.024;6.596;2023-05-15T05:55:49;12.30;75.90
52963;DHT22;38827;53.024;6.596;2023-05-15T05:58:45;12.30;75.90
52963;DHT22;38827;53.024;6.596;2023-05-15T06:01:11;12.30;75.60
52963;DHT22;38827;53.024;6.596;2023-05-15T06:03:37;12.30;75.70
52963;DHT22;38827;53.024;6.596;2023-05-15T06:06:03;12.40;75.70
52963;DHT22;38827;53.024;6.596;2023-05-15T06:08:29;12.50;75.50
52963;DHT22;38827;53.024;6.596;2023-05-15T06:10:55;12.60;75.10
52963;DHT22;38827;53.024;6.596;2023-05-15T06:13:21;12.70;74.70
52963;DHT22;38827;53.024;6.596;2023-05-15T06:15:47;12.80;74.40
52963;DHT22;38827;53.024;6.596;2023-05-15T06:18:13;12.90;74.10
52963;DHT22;38827;53.024;6.596;2023-05-15T06:20:38;13.00;73.70
52963;DHT22;38827;53.024;6.596;2023-05-15T06:23:07;13.10;73.40
52963;DHT22;38827;53.024;6.596;2023-05-15T06:25:32;13.20;72.70
52963;DHT22;38827;53.024;6.596;2023-05-15T06:27:58;13.30;72.10
52963;DHT22;38827;53.024;6.596;2023-05-15T06:30:24;13.30;71.70
52963;DHT22;38827;53.024;6.596;2023-05-15T06:32:49;13.40;71.60
52963;DHT22;38827;53.024;6.596;2023-05-15T06:35:15;13.40;71.70
52963;DHT22;38827;53.024;6.596;2023-05-15T06:37:41;13.60;71.50
52963;DHT22;38827;53.024;6.596;2023-05-15T06:40:07;13.80;71.30
52963;DHT22;38827;53.024;6.596;2023-05-15T06:42:33;13.90;70.60
52963;DHT22;38827;53.024;6.596;2023-05-15T06:44:58;14.10;70.30
52963;DHT22;38827;53.024;6.596;2023-05-15T06:47:24;14.20;70.00
52963;DHT22;38827;53.024;6.596;2023-05-15T06:49:50;14.40;69.60
52963;DHT22;38827;53.024;6.596;2023-05-15T06:52:16;14.70;68.50
52963;DHT22;38827;53.024;6.596;2023-05-15T06:54:41;14.80;68.00
52963;DHT22;38827;53.024;6.596;2023-05-15T06:57:07;14.90;67.70
52963;DHT22;38827;53.024;6.596;2023-05-15T06:59:33;15.00;67.10
52963;DHT22;38827;53.024;6.596;2023-05-15T07:02:01;15.10;66.70
52963;DHT22;38827;53.024;6.596;2023-05-15T07:04:27;15.30;66.00
52963;DHT22;38827;53.024;6.596;2023-05-15T07:06:53;15.40;65.50
52963;DHT22;38827;53.024;6.596;2023-05-15T07:09:19;15.50;65.30
52963;DHT22;38827;53.024;6.596;2023-05-15T07:11:45;15.70;64.80
52963;DHT22;38827;53.024;6.596;2023-05-15T07:14:10;15.80;64.20
52963;DHT22;38827;53.024;6.596;2023-05-15T07:16:36;15.80;63.80
52963;DHT22;38827;53.024;6.596;2023-05-15T07:19:01;15.70;63.70
52963;DHT22;38827;53.024;6.596;2023-05-15T07:21:27;15.80;63.70
52963;DHT22;38827;53.024;6.596;2023-05-15T07:23:53;15.90;63.30
52963;DHT22;38827;53.024;6.596;2023-05-15T07:26:18;16.00;62.80
52963;DHT22;38827;53.024;6.596;2023-05-15T07:28:44;16.10;62.70
52963;DHT22;38827;53.024;6.596;2023-05-15T07:31:10;16.20;62.50
52963;DHT22;38827;53.024;6.596;2023-05-15T07:33:35;16.30;62.20
52963;DHT22;38827;53.024;6.596;2023-05-15T07:36:01;16.30;61.80
52963;DHT22;38827;53.024;6.596;2023-05-15T07:38:27;16.40;61.60
52963;DHT22;38827;53.024;6.596;2023-05-15T07:40:53;16.40;61.20
52963;DHT22;38827;53.024;6.596;2023-05-15T07:43:18;16.40;61.30
52963;DHT22;38827;53.024;6.596;2023-05-15T07:45:44;16.40;61.40
52963;DHT22;38827;53.024;6.596;2023-05-15T07:48:18;16.30;61.40
52963;DHT22;38827;53.024;6.596;2023-05-15T07:50:45;16.30;61.30
52963;DHT22;38827;53.024;6.596;2023-05-15T07:53:14;16.30;61.80
52963;DHT22;38827;53.024;6.596;2023-05-15T07:55:43;16.30;61.40
52963;DHT22;38827;53.024;6.596;2023-05-15T07:58:09;16.40;61.60
52963;DHT22;38827;53.024;6.596;2023-05-15T08:00:35;16.60;61.30
52963;DHT22;38827;53.024;6.596;2023-05-15T08:03:14;16.70;61.00
52963;DHT22;38827;53.024;6.596;2023-05-15T08:05:40;16.90;60.10
52963;DHT22;38827;53.024;6.596;2023-05-15T08:08:06;16.90;59.90
52963;DHT22;38827;53.024;6.596;2023-05-15T08:10:32;16.90;60.00
52963;DHT22;38827;53.024;6.596;2023-05-15T08:12:57;17.00;59.80
52963;DHT22;38827;53.024;6.596;2023-05-15T08:15:23;17.10;59.50
52963;DHT22;38827;53.024;6.596;2023-05-15T08:17:49;17.10;59.40
52963;DHT22;38827;53.024;6.596;2023-05-15T08:20:15;17.20;59.50
52963;DHT22;38827;53.024;6.596;2023-05-15T08:22:41;17.30;59.30
52963;DHT22;38827;53.024;6.596;2023-05-15T08:25:07;17.30;59.00
52963;DHT22;38827;53.024;6.596;2023-05-15T08:27:33;17.40;59.00
52963;DHT22;38827;53.024;6.596;2023-05-15T08:29:59;17.50;58.50
52963;DHT22;38827;53.024;6.596;2023-05-15T08:32:25;17.60;57.90
52963;DHT22;38827;53.024;6.596;2023-05-15T08:34:51;17.70;57.70
52963;DHT22;38827;53.024;6.596;2023-05-15T08:37:17;17.90;57.40
52963;DHT22;38827;53.024;6.596;2023-05-15T08:39:43;18.10;56.70
52963;DHT22;38827;53.024;6.596;2023-05-15T08:42:36;18.30;55.90
52963;DHT22;38827;53.024;6.596;2023-05-15T08:45:06;18.60;55.10
52963;DHT22;38827;53.024;6.596;2023-05-15T08:47:34;18.70;54.80
52963;DHT22;38827;53.024;6.596;2023-05-15T08:50:10;18.80;54.50
52963;DHT22;38827;53.024;6.596;2023-05-15T08:52:39;18.80;54.20
52963;DHT22;38827;53.024;6.596;2023-05-15T08:55:07;18.80;54.50
52963;DHT22;38827;53.024;6.596;2023-05-15T08:57:33;18.90;54.50
52963;DHT22;38827;53.024;6.596;2023-05-15T08:59:59;19.00;54.30
52963;DHT22;38827;53.024;6.596;2023-05-15T09:02:25;19.10;54.20
52963;DHT22;38827;53.024;6.596;2023-05-15T09:04:51;19.30;53.80
52963;DHT22;38827;53.024;6.596;2023-05-15T09:07:19;19.50;53.70
52963;DHT22;38827;53.024;6.596;2023-05-15T09:09:45;19.60;53.20
52963;DHT22;38827;53.024;6.596;2023-05-15T09:12:14;19.80;52.80
52963;DHT22;38827;53.024;6.596;2023-05-15T09:14:41;20.10;52.30
52963;DHT22;38827;53.024;6.596;2023-05-15T09:17:09;20.30;51.10
52963;DHT22;38827;53.024;6.596;2023-05-15T09:19:37;20.50;50.30
52963;DHT22;38827;53.024;6.596;2023-05-15T09:24:42;20.60;48.60
52963;DHT22;38827;53.024;6.596;2023-05-15T09:27:08;20.50;49.30
52963;DHT22;38827;53.024;6.596;2023-05-15T09:29:35;20.50;49.60
52963;DHT22;38827;53.024;6.596;2023-05-15T09:32:21;20.50;49.70
52963;DHT22;38827;53.024;6.596;2023-05-15T09:34:51;20.70;49.00
52963;DHT22;38827;53.024;6.596;2023-05-15T09:37:28;21.00;48.80
52963;DHT22;38827;53.024;6.596;2023-05-15T09:39:54;21.10;48.30
52963;DHT22;38827;53.024;6.596;2023-05-15T09:42:23;21.40;48.40
52963;DHT22;38827;53.024;6.596;2023-05-15T09:44:49;21.70;48.00
52963;DHT22;38827;53.024;6.596;2023-05-15T09:47:14;22.00;47.40
52963;DHT22;38827;53.024;6.596;2023-05-15T09:49:44;22.30;46.90
52963;DHT22;38827;53.024;6.596;2023-05-15T09:52:17;22.60;46.40
52963;DHT22;38827;53.024;6.596;2023-05-15T09:54:46;22.80;45.50
52963;DHT22;38827;53.024;6.596;2023-05-15T09:57:13;22.90;45.50
52963;DHT22;38827;53.024;6.596;2023-05-15T09:59:47;23.40;44.80
52963;DHT22;38827;53.024;6.596;2023-05-15T10:02:25;23.80;44.10
52963;DHT22;38827;53.024;6.596;2023-05-15T10:04:57;24.30;43.20
52963;DHT22;38827;53.024;6.596;2023-05-15T10:07:50;24.80;41.50
52963;DHT22;38827;53.024;6.596;2023-05-15T10:10:18;25.20;41.90
52963;DHT22;38827;53.024;6.596;2023-05-15T10:12:44;25.60;41.10
52963;DHT22;38827;53.024;6.596;2023-05-15T10:15:10;26.10;40.60
52963;DHT22;38827;53.024;6.596;2023-05-15T10:17:36;26.50;39.50
52963;DHT22;38827;53.024;6.596;2023-05-15T10:20:04;26.90;38.90
52963;DHT22;38827;53.024;6.596;2023-05-15T10:22:35;26.90;38.20
52963;DHT22;38827;53.024;6.596;2023-05-15T10:25:35;26.80;38.60
52963;DHT22;38827;53.024;6.596;2023-05-15T10:28:02;27.20;38.30
52963;DHT22;38827;53.024;6.596;2023-05-15T10:30:30;27.50;37.70
52963;DHT22;38827;53.024;6.596;2023-05-15T10:33:28;27.20;38.10
52963;DHT22;38827;53.024;6.596;2023-05-15T10:35:55;26.90;38.30
52963;DHT22;38827;53.024;6.596;2023-05-15T10:38:22;26.90;38.20
52963;DHT22;38827;53.024;6.596;2023-05-15T10:40:48;26.90;37.70
52963;DHT22;38827;53.024;6.596;2023-05-15T10:43:17;26.90;37.70
52963;DHT22;38827;53.024;6.596;2023-05-15T10:45:45;26.60;38.00
52963;DHT22;38827;53.024;6.596;2023-05-15T10:48:12;26.30;38.50
52963;DHT22;38827;53.024;6.596;2023-05-15T10:50:38;26.00;39.10
52963;DHT22;38827;53.024;6.596;2023-05-15T10:53:04;25.70;39.50
52963;DHT22;38827;53.024;6.596;2023-05-15T10:55:30;25.30;39.60
52963;DHT22;38827;53.024;6.596;2023-05-15T10:57:56;25.00;40.10
52963;DHT22;38827;53.024;6.596;2023-05-15T11:00:50;24.70;40.70
52963;DHT22;38827;53.024;6.596;2023-05-15T11:03:46;24.60;40.50
52963;DHT22;38827;53.024;6.596;2023-05-15T11:06:27;24.40;41.30
52963;DHT22;38827;53.024;6.596;2023-05-15T11:09:36;24.90;40.40
52963;DHT22;38827;53.024;6.596;2023-05-15T11:12:24;26.00;40.50
52963;DHT22;38827;53.024;6.596;2023-05-15T11:17:16;27.70;38.10
52963;DHT22;38827;53.024;6.596;2023-05-15T11:27:40;28.80;35.60
52963;DHT22;38827;53.024;6.596;2023-05-15T11:30:10;28.90;35.70
52963;DHT22;38827;53.024;6.596;2023-05-15T11:35:10;27.70;36.10
52963;DHT22;38827;53.024;6.596;2023-05-15T11:37:41;26.70;37.40
52963;DHT22;38827;53.024;6.596;2023-05-15T11:40:11;25.90;38.30
52963;DHT22;38827;53.024;6.596;2023-05-15T11:42:37;26.00;38.70
52963;DHT22;38827;53.024;6.596;2023-05-15T11:45:05;26.80;37.80
52963;DHT22;38827;53.024;6.596;2023-05-15T11:47:31;27.40;37.00
52963;DHT22;38827;53.024;6.596;2023-05-15T11:58:18;26.20;39.40
52963;DHT22;38827;53.024;6.596;2023-05-15T12:01:56;26.40;38.30
52963;DHT22;38827;53.024;6.596;2023-05-15T12:04:35;26.40;39.50
52963;DHT22;38827;53.024;6.596;2023-05-15T12:07:10;26.50;39.20
52963;DHT22;38827;53.024;6.596;2023-05-15T12:09:42;26.30;39.20
52963;DHT22;38827;53.024;6.596;2023-05-15T12:12:20;26.00;39.20
52963;DHT22;38827;53.024;6.596;2023-05-15T12:15:00;25.80;39.40
52963;DHT22;38827;53.024;6.596;2023-05-15T12:17:25;25.40;40.00
52963;DHT22;38827;53.024;6.596;2023-05-15T12:19:52;24.90;41.20
52963;DHT22;38827;53.024;6.596;2023-05-15T12:22:20;24.50;41.90
52963;DHT22;38827;53.024;6.596;2023-05-15T12:24:46;24.40;42.30
52963;DHT22;38827;53.024;6.596;2023-05-15T12:27:12;24.20;42.70
52963;DHT22;38827;53.024;6.596;2023-05-15T12:29:39;24.00;43.10
52963;DHT22;38827;53.024;6.596;2023-05-15T12:32:06;23.90;43.70
52963;DHT22;38827;53.024;6.596;2023-05-15T12:34:33;23.90;43.20
52963;DHT22;38827;53.024;6.596;2023-05-15T12:36:58;24.00;43.10
52963;DHT22;38827;53.024;6.596;2023-05-15T12:39:50;24.00;43.30
52963;DHT22;38827;53.024;6.596;2023-05-15T12:42:51;24.10;43.10
52963;DHT22;38827;53.024;6.596;2023-05-15T12:55:37;23.90;43.60
52963;DHT22;38827;53.024;6.596;2023-05-15T13:01:50;23.60;42.80
52963;DHT22;38827;53.024;6.596;2023-05-15T13:04:34;23.40;42.50
52963;DHT22;38827;53.024;6.596;2023-05-15T13:07:28;23.40;42.50
52963;DHT22;38827;53.024;6.596;2023-05-15T13:10:08;23.20;41.30
52963;DHT22;38827;53.024;6.596;2023-05-15T13:12:54;23.20;41.70
52963;DHT22;38827;53.024;6.596;2023-05-15T13:15:39;23.50;41.00
52963;DHT22;38827;53.024;6.596;2023-05-15T13:18:15;23.80;41.50
52963;DHT22;38827;53.024;6.596;2023-05-15T13:23:08;23.40;43.50
52963;DHT22;38827;53.024;6.596;2023-05-15T13:25:34;23.30;43.50
52963;DHT22;38827;53.024;6.596;2023-05-15T13:28:02;23.20;44.30
52963;DHT22;38827;53.024;6.596;2023-05-15T13:30:28;23.10;44.60
52963;DHT22;38827;53.024;6.596;2023-05-15T13:32:54;23.20;44.80
52963;DHT22;38827;53.024;6.596;2023-05-15T13:35:20;23.00;44.70
52963;DHT22;38827;53.024;6.596;2023-05-15T13:37:46;22.60;45.10
52963;DHT22;38827;53.024;6.596;2023-05-15T13:40:12;22.10;46.10
52963;DHT22;38827;53.024;6.596;2023-05-15T13:42:39;21.70;46.90
52963;DHT22;38827;53.024;6.596;2023-05-15T13:45:11;21.60;48.00
52963;DHT22;38827;53.024;6.596;2023-05-15T13:47:37;21.70;48.00
52963;DHT22;38827;53.024;6.596;2023-05-15T13:50:10;21.70;47.70
52963;DHT22;38827;53.024;6.596;2023-05-15T13:52:37;21.80;47.00
52963;DHT22;38827;53.024;6.596;2023-05-15T13:55:03;21.70;47.20
52963;DHT22;38827;53.024;6.596;2023-05-15T13:57:29;21.50;47.70
52963;DHT22;38827;53.024;6.596;2023-05-15T13:59:56;21.40;47.70
52963;DHT22;38827;53.024;6.596;2023-05-15T14:02:21;21.50;47.90
52963;DHT22;38827;53.024;6.596;2023-05-15T14:04:51;21.40;47.90
52963;DHT22;38827;53.024;6.596;2023-05-15T14:07:17;21.20;47.80
52963;DHT22;38827;53.024;6.596;2023-05-15T14:09:43;21.10;48.10
52963;DHT22;38827;53.024;6.596;2023-05-15T14:12:09;20.90;48.20
52963;DHT22;38827;53.024;6.596;2023-05-15T14:14:39;20.80;48.40
52963;DHT22;38827;53.024;6.596;2023-05-15T14:17:05;20.60;49.00
52963;DHT22;38827;53.024;6.596;2023-05-15T14:19:31;20.30;49.30
52963;DHT22;38827;53.024;6.596;2023-05-15T14:21:56;20.10;49.80
52963;DHT22;38827;53.024;6.596;2023-05-15T14:24:22;19.80;50.50
52963;DHT22;38827;53.024;6.596;2023-05-15T14:26:47;19.60;50.50
52963;DHT22;38827;53.024;6.596;2023-05-15T14:29:13;19.40;50.60
52963;DHT22;38827;53.024;6.596;2023-05-15T14:31:40;19.20;51.30
52963;DHT22;38827;53.024;6.596;2023-05-15T14:34:07;19.10;51.80
52963;DHT22;38827;53.024;6.596;2023-05-15T14:36:32;19.00;52.10
52963;DHT22;38827;53.024;6.596;2023-05-15T14:38:58;18.90;52.20
52963;DHT22;38827;53.024;6.596;2023-05-15T14:41:23;19.00;52.60
52963;DHT22;38827;53.024;6.596;2023-05-15T14:43:49;18.90;52.80
52963;DHT22;38827;53.024;6.596;2023-05-15T14:46:15;18.90;52.80
52963;DHT22;38827;53.024;6.596;2023-05-15T14:48:41;18.70;52.90
52963;DHT22;38827;53.024;6.596;2023-05-15T14:51:06;18.50;53.10
52963;DHT22;38827;53.024;6.596;2023-05-15T14:53:32;18.40;53.70
52963;DHT22;38827;53.024;6.596;2023-05-15T14:55:59;18.40;54.00
52963;DHT22;38827;53.024;6.596;2023-05-15T14:58:25;18.40;53.80
52963;DHT22;38827;53.024;6.596;2023-05-15T15:00:50;18.50;53.70
52963;DHT22;38827;53.024;6.596;2023-05-15T15:03:16;18.50;53.70
52963;DHT22;38827;53.024;6.596;2023-05-15T15:05:43;18.50;53.60
52963;DHT22;38827;53.024;6.596;2023-05-15T15:08:09;18.50;53.90
52963;DHT22;38827;53.024;6.596;2023-05-15T15:10:37;18.50;53.60
52963;DHT22;38827;53.024;6.596;2023-05-15T15:13:03;18.30;54.10
52963;DHT22;38827;53.024;6.596;2023-05-15T15:20:40;18.20;54.20
52963;DHT22;38827;53.024;6.596;2023-05-15T15:23:07;18.10;54.60
52963;DHT22;38827;53.024;6.596;2023-05-15T15:41:16;17.50;55.80
52963;DHT22;38827;53.024;6.596;2023-05-15T15:44:37;17.40;55.50
52963;DHT22;38827;53.024;6.596;2023-05-15T15:47:21;17.30;55.90
52963;DHT22;38827;53.024;6.596;2023-05-15T15:49:49;17.10;56.40
52963;DHT22;38827;53.024;6.596;2023-05-15T15:52:33;16.80;57.00
52963;DHT22;38827;53.024;6.596;2023-05-15T15:55:11;16.60;57.50
52963;DHT22;38827;53.024;6.596;2023-05-15T15:58:05;16.40;57.90
52963;DHT22;38827;53.024;6.596;2023-05-15T16:00:36;16.40;58.10
52963;DHT22;38827;53.024;6.596;2023-05-15T16:03:33;16.30;58.00
52963;DHT22;38827;53.024;6.596;2023-05-15T16:06:21;16.20;58.40
52963;DHT22;38827;53.024;6.596;2023-05-15T16:09:20;16.00;58.70
52963;DHT22;38827;53.024;6.596;2023-05-15T16:12:10;16.00;59.00
52963;DHT22;38827;53.024;6.596;2023-05-15T16:25:05;15.80;60.10
52963;DHT22;38827;53.024;6.596;2023-05-15T16:27:31;15.70;60.10
52963;DHT22;38827;53.024;6.596;2023-05-15T16:30:09;15.70;59.90
52963;DHT22;38827;53.024;6.596;2023-05-15T16:33:10;15.60;60.10
52963;DHT22;38827;53.024;6.596;2023-05-15T16:35:52;15.50;60.30
52963;DHT22;38827;53.024;6.596;2023-05-15T16:38:21;15.30;60.80
52963;DHT22;38827;53.024;6.596;2023-05-15T16:41:50;15.20;61.10
52963;DHT22;38827;53.024;6.596;2023-05-15T16:44:24;15.10;61.70
52963;DHT22;38827;53.024;6.596;2023-05-15T16:47:21;14.80;62.50
52963;DHT22;38827;53.024;6.596;2023-05-15T16:53:03;14.60;62.50
52963;DHT22;38827;53.024;6.596;2023-05-15T16:55:32;14.50;62.90
52963;DHT22;38827;53.024;6.596;2023-05-15T16:58:01;14.50;63.10
52963;DHT22;38827;53.024;6.596;2023-05-15T17:00:54;14.50;63.50
52963;DHT22;38827;53.024;6.596;2023-05-15T17:03:19;14.40;64.50
52963;DHT22;38827;53.024;6.596;2023-05-15T17:05:45;14.30;63.80
52963;DHT22;38827;53.024;6.596;2023-05-15T17:08:23;14.20;63.90
52963;DHT22;38827;53.024;6.596;2023-05-15T17:10:49;14.10;64.70
52963;DHT22;38827;53.024;6.596;2023-05-15T17:13:15;14.00;64.90
52963;DHT22;38827;53.024;6.596;2023-05-15T17:23:38;13.70;66.10
52963;DHT22;38827;53.024;6.596;2023-05-15T17:26:05;13.60;66.10